Time;durP1;ratioP1;P1;durP2;ratioP2;P2;SDS_P1;SDS_P2;PMS_P1;PMS_P2;Temp;Humidity;BMP_temperature;BMP_pressure;BME280_temperature;BME280_humidity;BME280_pressure;Samples;Min_cycle;Max_cycle;Signal;HPM_P1;HPM_P2
2022/10/28 00:00:24;;;;;;;6.05;2.20;;;;;;;14.14;100.00;101155.66;5220983;28;20391;-74
2022/10/28 00:02:54;;;;;;;7.32;2.38;;;;;;;13.98;100.00;101149.31;5227935;28;20028;-75
2022/10/28 00:05:24;;;;;;;9.20;2.42;;;;;;;13.81;100.00;101151.75;5227956;28;20033;-75
2022/10/28 00:07:54;;;;;;;5.80;2.53;;;;;;;13.79;100.00;101151.84;5225332;28;20536;-75
2022/10/28 00:10:25;;;;;;;6.57;2.30;;;;;;;13.87;100.00;101160.25;5226842;28;20119;-75
2022/10/28 00:12:55;;;;;;;10.48;2.75;;;;;;;14.01;100.00;101154.44;5227279;28;20254;-76
2022/10/28 00:15:25;;;;;;;8.00;2.95;;;;;;;14.08;100.00;101158.56;5225706;28;20399;-75
2022/10/28 00:17:56;;;;;;;5.90;2.80;;;;;;;14.13;100.00;101149.56;5226108;28;20421;-76
2022/10/28 00:20:26;;;;;;;6.10;2.83;;;;;;;14.16;100.00;101152.09;5225305;28;20125;-75
2022/10/28 00:22:56;;;;;;;9.43;2.60;;;;;;;14.12;100.00;101154.88;5225999;28;20028;-75
2022/10/28 00:25:26;;;;;;;10.20;2.75;;;;;;;14.00;100.00;101143.09;5226852;28;20044;-75
2022/10/28 00:27:57;;;;;;;9.85;2.50;;;;;;;14.09;100.00;101142.69;5208523;28;20086;-75
2022/10/28 00:30:27;;;;;;;5.85;2.60;;;;;;;14.16;100.00;101149.47;5206365;28;20028;-75
2022/10/28 00:32:57;;;;;;;11.02;2.72;;;;;;;14.10;100.00;101154.09;5218643;28;20525;-75
2022/10/28 00:35:28;;;;;;;9.73;2.50;;;;;;;14.06;100.00;101147.25;5224523;28;20016;-75
2022/10/28 00:37:58;;;;;;;9.10;2.05;;;;;;;13.99;100.00;101135.25;5224046;28;20792;-74
2022/10/28 00:40:33;;;;;;;4.60;2.20;;;;;;;13.97;100.00;101139.72;5231090;28;20033;-74
2022/10/28 00:43:03;;;;;;;7.65;2.63;;;;;;;13.91;100.00;101142.59;5231369;28;20467;-75
2022/10/28 00:45:34;;;;;;;9.90;2.80;;;;;;;13.90;100.00;101143.53;5229036;28;20024;-75
2022/10/28 00:48:05;;;;;;;7.32;2.30;;;;;;;13.85;100.00;101137.56;5228443;28;20056;-75
2022/10/28 00:50:52;;;;;;;8.02;2.90;;;;;;;13.87;100.00;101141.00;5232298;28;20025;-75
2022/10/28 00:53:27;;;;;;;6.70;2.40;;;;;;;13.86;100.00;101144.53;5231219;28;20104;-75
2022/10/28 00:56:00;;;;;;;5.53;2.25;;;;;;;13.81;100.00;101141.25;5231136;28;20166;-75
2022/10/28 00:58:31;;;;;;;11.85;2.55;;;;;;;13.83;100.00;101144.66;5230216;28;20037;-75
2022/10/28 01:01:02;;;;;;;5.78;2.53;;;;;;;13.79;100.00;101141.34;5228825;28;20495;-75
2022/10/28 01:03:32;;;;;;;11.20;3.05;;;;;;;13.87;100.00;101135.75;5232548;28;20063;-75
2022/10/28 01:06:04;;;;;;;7.22;2.40;;;;;;;13.86;100.00;101134.91;5233845;28;20024;-74
2022/10/28 01:08:34;;;;;;;8.90;2.42;;;;;;;13.91;100.00;101139.97;5231857;28;20485;-75
2022/10/28 01:11:22;;;;;;;5.60;2.30;;;;;;;13.93;100.00;101146.03;5235113;28;20111;-75
2022/10/28 01:14:21;;;;;;;6.10;2.13;;;;;;;13.93;100.00;101149.50;5232735;28;20021;-75
2022/10/28 01:17:13;;;;;;;6.10;2.08;;;;;;;13.83;100.00;101145.53;5234720;28;20028;-74
2022/10/28 01:20:10;;;;;;;5.60;2.10;;;;;;;13.65;100.00;101151.53;5235908;28;20029;-75
2022/10/28 01:22:51;;;;;;;4.32;2.10;;;;;;;13.50;100.00;101162.59;5234087;28;20022;-75
2022/10/28 01:25:55;;;;;;;6.90;2.10;;;;;;;13.58;100.00;101159.69;5228564;28;20020;-74
2022/10/28 01:28:58;;;;;;;9.02;2.28;;;;;;;13.53;100.00;101167.75;5228113;28;20032;-75
2022/10/28 01:31:46;;;;;;;7.05;2.00;;;;;;;13.52;100.00;101162.53;5182299;28;20036;-75
2022/10/28 01:34:28;;;;;;;6.05;2.10;;;;;;;13.58;100.00;101164.94;5242231;22;20132;-73
2022/10/28 01:37:46;;;;;;;5.95;1.80;;;;;;;13.84;100.00;101168.28;5185434;28;20033;-73
2022/10/28 01:40:16;;;;;;;10.70;2.53;;;;;;;13.53;100.00;101174.75;5196068;28;20296;-73
2022/10/28 01:43:04;;;;;;;8.48;2.30;;;;;;;13.54;100.00;101168.59;5196016;28;20087;-73
2022/10/28 01:45:54;;;;;;;6.53;2.42;;;;;;;13.41;100.00;101168.19;5163639;28;20092;-73
2022/10/28 01:48:33;;;;;;;4.45;1.98;;;;;;;13.39;100.00;101166.56;5181248;28;20034;-73
2022/10/28 01:51:06;;;;;;;6.75;2.25;;;;;;;13.32;100.00;101168.56;5186598;28;20037;-73
2022/10/28 01:53:40;;;;;;;8.52;2.47;;;;;;;13.40;100.00;101170.91;5188138;28;20025;-73
2022/10/28 01:56:16;;;;;;;9.55;2.55;;;;;;;13.44;100.00;101170.69;5185878;28;20025;-73
2022/10/28 01:58:49;;;;;;;8.30;2.80;;;;;;;13.51;100.00;101159.06;5186232;28;20116;-73
2022/10/28 02:01:21;;;;;;;6.18;2.25;;;;;;;13.50;100.00;101162.59;5197940;28;20041;-73
2022/10/28 02:03:52;;;;;;;5.07;2.50;;;;;;;13.32;100.00;101152.81;5180730;28;20483;-74
2022/10/28 02:06:26;;;;;;;8.13;2.65;;;;;;;13.22;100.00;101156.66;5186632;28;20038;-73
2022/10/28 02:09:04;;;;;;;6.55;2.90;;;;;;;13.34;100.00;101152.72;5189288;28;20426;-74
2022/10/28 02:11:55;;;;;;;6.10;2.85;;;;;;;13.29;100.00;101146.78;5186975;28;20060;-74
2022/10/28 02:14:57;;;;;;;6.82;2.25;;;;;;;13.21;100.00;101138.38;5182882;28;20030;-73
2022/10/28 02:17:44;;;;;;;6.28;2.47;;;;;;;13.16;100.00;101140.28;5168166;28;20033;-74
2022/10/28 02:20:39;;;;;;;4.20;2.30;;;;;;;13.25;100.00;101148.66;5202650;28;20053;-73
2022/10/28 02:23:54;;;;;;;11.23;2.63;;;;;;;13.28;100.00;101142.47;5189973;28;20033;-73
2022/10/28 02:26:40;;;;;;;7.88;3.03;;;;;;;13.26;100.00;101136.41;5162675;28;20029;-74
2022/10/28 02:29:18;;;;;;;6.70;2.20;;;;;;;13.20;100.00;101129.63;5184516;28;20037;-73
2022/10/28 02:31:56;;;;;;;6.85;2.88;;;;;;;13.17;100.00;101135.00;5180885;28;20464;-73
2022/10/28 02:34:32;;;;;;;4.97;2.45;;;;;;;13.17;100.00;101128.88;5180908;28;20026;-74
2022/10/28 02:37:04;;;;;;;;;;;;;;;13.29;100.00;101131.03;5203109;28;20053;-73
2022/10/28 02:39:39;;;;;;;5.28;2.67;;;;;;;13.30;100.00;101127.50;5186197;28;19913;-74
2022/10/28 02:42:16;;;;;;;9.02;2.60;;;;;;;13.15;100.00;101126.31;5165122;28;20033;-74
2022/10/28 02:44:52;;;;;;;5.63;2.30;;;;;;;13.14;100.00;101136.88;5183177;28;20029;-73
2022/10/28 02:47:27;;;;;;;10.40;2.60;;;;;;;13.14;100.00;101135.13;5178559;28;20030;-74
2022/10/28 02:50:03;;;;;;;9.15;2.97;;;;;;;13.18;100.00;101135.84;5184799;28;20021;-74
2022/10/28 02:52:34;;;;;;;11.68;2.72;;;;;;;13.21;100.00;101127.88;5186600;28;20045;-74
2022/10/28 02:55:05;;;;;;;11.15;3.00;;;;;;;13.21;100.00;101125.25;5182606;28;20037;-74
2022/10/28 02:57:40;;;;;;;13.10;3.20;;;;;;;13.18;100.00;101125.34;5185340;28;20034;-73
2022/10/28 03:00:15;;;;;;;8.13;2.65;;;;;;;13.17;100.00;101116.63;5181935;28;20036;-73
2022/10/28 03:02:46;;;;;;;8.82;2.90;;;;;;;13.09;100.00;101123.06;5181518;28;20040;-73
2022/10/28 03:05:16;;;;;;;7.15;2.25;;;;;;;12.75;100.00;101124.28;5186068;28;20022;-73
2022/10/28 03:07:46;;;;;;;8.48;3.50;;;;;;;13.07;100.00;101124.91;5187854;28;20105;-73
2022/10/28 03:10:17;;;;;;;6.15;2.58;;;;;;;12.94;100.00;101118.38;5164874;28;20024;-73
2022/10/28 03:12:47;;;;;;;6.07;3.05;;;;;;;12.98;100.00;101108.63;5183100;28;20049;-73
2022/10/28 03:15:18;;;;;;;6.75;2.80;;;;;;;12.88;100.00;101109.84;5181635;28;20098;-73
2022/10/28 03:17:48;;;;;;;10.68;2.65;;;;;;;12.91;100.00;101107.97;5179543;28;20053;-73
2022/10/28 03:20:18;;;;;;;10.07;2.70;;;;;;;13.04;100.00;101101.41;5188696;28;20029;-73
2022/10/28 03:22:48;;;;;;;6.40;2.90;;;;;;;13.04;100.00;101104.84;5187110;28;20044;-73
2022/10/28 03:25:19;;;;;;;7.73;3.00;;;;;;;13.08;100.00;101103.81;5179052;28;20104;-73
2022/10/28 03:27:49;;;;;;;6.68;2.95;;;;;;;13.07;100.00;101093.41;5166247;28;20272;-73
2022/10/28 03:30:19;;;;;;;8.00;2.80;;;;;;;13.04;100.00;101094.38;5179655;28;20530;-74
2022/10/28 03:32:49;;;;;;;9.82;2.85;;;;;;;13.03;100.00;101086.56;5182298;28;20288;-73
2022/10/28 03:35:20;;;;;;;9.17;2.97;;;;;;;12.97;100.00;101092.03;5185324;28;20033;-73
2022/10/28 03:37:50;;;;;;;8.57;2.92;;;;;;;12.97;100.00;101089.41;5185077;28;20294;-73
2022/10/28 03:40:20;;;;;;;8.77;3.00;;;;;;;12.99;100.00;101074.44;5181884;28;20112;-73
2022/10/28 03:42:50;;;;;;;7.72;2.88;;;;;;;13.07;100.00;101075.03;5181779;28;20037;-73
2022/10/28 03:45:21;;;;;;;13.60;2.88;;;;;;;12.96;100.00;101071.94;5181289;28;20034;-73
2022/10/28 03:47:51;;;;;;;8.80;2.30;;;;;;;12.84;100.00;101068.91;5177668;28;20120;-73
2022/10/28 03:50:21;;;;;;;7.97;2.50;;;;;;;12.93;100.00;101062.41;5187247;28;20280;-73
2022/10/28 03:52:51;;;;;;;6.00;2.60;;;;;;;12.93;100.00;101074.69;5183399;28;20108;-74
2022/10/28 03:55:22;;;;;;;10.60;2.87;;;;;;;12.91;100.00;101081.72;5180591;28;20159;-73
2022/10/28 03:57:53;;;;;;;10.70;3.10;;;;;;;12.93;100.00;101080.78;5182734;28;20284;-73
2022/10/28 04:00:23;;;;;;;7.90;2.67;;;;;;;12.93;100.00;101072.06;5178174;28;20054;-73
2022/10/28 04:02:53;;;;;;;10.30;2.90;;;;;;;12.91;100.00;101072.06;5181681;28;20617;-74
2022/10/28 04:05:24;;;;;;;10.38;2.97;;;;;;;12.96;100.00;101082.44;5184987;28;21001;-73
2022/10/28 04:07:54;;;;;;;7.28;2.88;;;;;;;12.97;100.00;101070.19;5185085;28;20037;-74
2022/10/28 04:10:24;;;;;;;7.88;2.80;;;;;;;12.91;100.00;101077.31;5184364;28;20445;-73
2022/10/28 04:13:02;;;;;;;7.30;2.60;;;;;;;12.93;100.00;101081.69;5182706;28;20029;-74
2022/10/28 04:15:33;;;;;;;12.82;2.97;;;;;;;12.83;100.00;101067.19;5176319;28;20315;-73
2022/10/28 04:18:03;;;;;;;5.78;2.45;;;;;;;12.91;100.00;101071.25;5165873;28;20503;-73
2022/10/28 04:20:34;;;;;;;7.40;2.60;;;;;;;12.89;100.00;101057.31;5186861;28;20021;-74
2022/10/28 04:23:05;;;;;;;7.25;2.80;;;;;;;13.01;100.00;101059.50;5180486;28;20029;-73
2022/10/28 04:25:35;;;;;;;12.43;2.83;;;;;;;13.06;100.00;101065.44;5183260;28;20040;-72
2022/10/28 04:28:06;;;;;;;6.22;2.63;;;;;;;13.08;100.00;101068.88;5180449;28;20038;-73
2022/10/28 04:30:36;;;;;;;5.80;2.50;;;;;;;13.19;100.00;101056.16;5178585;28;20421;-73
2022/10/28 04:33:11;;;;;;;13.35;3.15;;;;;;;13.31;100.00;101055.72;5182137;28;20029;-73
2022/10/28 04:35:44;;;;;;;11.43;2.90;;;;;;;13.34;100.00;101061.72;5181718;28;20040;-72
2022/10/28 04:38:14;;;;;;;7.80;2.83;;;;;;;13.43;100.00;101071.00;5178870;28;20025;-74
2022/10/28 04:40:48;;;;;;;5.60;2.83;;;;;;;13.38;100.00;101079.03;5183194;28;20060;-73
2022/10/28 04:43:18;;;;;;;11.02;3.08;;;;;;;13.45;100.00;101066.53;5181772;28;20025;-73
2022/10/28 04:45:48;;;;;;;13.60;2.97;;;;;;;13.44;100.00;101063.03;5178688;28;20431;-74
2022/10/28 04:48:19;;;;;;;8.88;2.95;;;;;;;13.47;100.00;101064.69;5179644;28;20018;-73
2022/10/28 04:50:50;;;;;;;11.98;3.03;;;;;;;13.52;100.00;101063.59;5180825;28;20463;-74
2022/10/28 04:53:20;;;;;;;9.32;3.28;;;;;;;13.51;100.00;101059.28;5178124;28;20026;-73
2022/10/28 04:55:50;;;;;;;7.35;2.95;;;;;;;13.55;100.00;101055.59;5182975;28;20076;-73
2022/10/28 04:58:20;;;;;;;7.75;3.17;;;;;;;13.51;100.00;101045.28;5161772;28;20033;-73
2022/10/28 05:00:51;;;;;;;8.02;3.10;;;;;;;13.49;100.00;101047.97;5192432;28;20029;-73
2022/10/28 05:03:21;;;;;;;8.82;2.90;;;;;;;13.58;100.00;101044.13;5160803;28;20057;-73
2022/10/28 05:05:51;;;;;;;7.25;2.72;;;;;;;13.53;100.00;101048.69;5187557;28;20032;-73
2022/10/28 05:08:22;;;;;;;9.70;3.03;;;;;;;13.47;100.00;101027.94;5180420;28;20124;-73
2022/10/28 05:10:52;;;;;;;6.32;3.03;;;;;;;13.49;100.00;101029.59;5181631;28;20288;-74
2022/10/28 05:13:22;;;;;;;10.85;3.13;;;;;;;13.49;100.00;101018.22;5180567;28;20037;-73
2022/10/28 05:15:53;;;;;;;10.43;3.05;;;;;;;13.52;100.00;101015.47;5178093;28;20029;-73
2022/10/28 05:18:23;;;;;;;11.38;2.72;;;;;;;13.58;100.00;101020.50;5182042;28;20026;-73
2022/10/28 05:20:54;;;;;;;8.67;2.87;;;;;;;13.58;100.00;101017.88;5181141;28;20033;-73
2022/10/28 05:23:24;;;;;;;11.20;3.58;;;;;;;13.61;100.00;101030.88;5181941;28;20276;-74
2022/10/28 05:25:54;;;;;;;7.25;3.42;;;;;;;13.72;100.00;101026.03;5186009;28;20402;-73
2022/10/28 05:28:25;;;;;;;8.35;2.97;;;;;;;13.72;100.00;101028.66;5182069;28;20037;-73
2022/10/28 05:30:55;;;;;;;7.55;2.78;;;;;;;13.73;100.00;101027.75;5183152;28;20025;-74
2022/10/28 05:33:25;;;;;;;9.88;3.10;;;;;;;13.74;100.00;101032.09;5185820;28;20029;-73
2022/10/28 05:35:57;;;;;;;5.93;2.60;;;;;;;13.78;100.00;101025.78;5184060;28;20527;-73
2022/10/28 05:38:28;;;;;;;9.32;3.30;;;;;;;13.81;100.00;101015.13;5185222;28;20136;-73
2022/10/28 05:40:58;;;;;;;11.05;3.25;;;;;;;13.79;100.00;101017.84;5184534;28;20478;-74
2022/10/28 05:43:28;;;;;;;8.75;2.95;;;;;;;13.83;100.00;101008.03;5180259;28;20030;-74
2022/10/28 05:45:58;;;;;;;9.48;3.17;;;;;;;13.96;100.00;101002.22;5184743;28;20883;-74
2022/10/28 05:48:29;;;;;;;8.15;2.83;;;;;;;13.90;100.00;101001.63;5188186;28;20030;-74
2022/10/28 05:50:59;;;;;;;8.43;2.90;;;;;;;13.87;100.00;101001.72;5184537;28;20033;-74
2022/10/28 05:53:30;;;;;;;9.60;2.88;;;;;;;13.81;100.00;101002.88;5186594;28;20061;-74
2022/10/28 05:56:00;;;;;;;11.98;3.33;;;;;;;13.87;100.00;100991.22;5183560;28;20084;-74
2022/10/28 05:58:30;;;;;;;6.25;3.13;;;;;;;13.86;100.00;100992.13;5180762;28;20395;-74
2022/10/28 06:01:00;;;;;;;9.02;3.10;;;;;;;13.82;100.00;100995.81;5184025;28;20033;-74
2022/10/28 06:03:31;;;;;;;10.43;2.78;;;;;;;13.80;100.00;100995.03;5186967;28;20053;-74
2022/10/28 06:06:01;;;;;;;10.38;3.03;;;;;;;13.85;100.00;100995.69;5187100;28;20037;-73
2022/10/28 06:08:31;;;;;;;7.13;3.20;;;;;;;13.87;100.00;100980.72;5184439;28;20037;-74
2022/10/28 06:11:01;;;;;;;10.38;3.13;;;;;;;13.93;100.00;100986.56;5184057;28;20543;-74
2022/10/28 06:13:32;;;;;;;9.80;2.90;;;;;;;14.04;100.00;100980.84;5180607;28;20109;-74
2022/10/28 06:16:02;;;;;;;11.10;3.20;;;;;;;14.04;100.00;100988.72;5186075;28;20025;-74
2022/10/28 06:18:32;;;;;;;14.07;2.70;;;;;;;14.21;100.00;100983.63;5188394;28;20316;-74
2022/10/28 06:21:03;;;;;;;9.52;2.50;;;;;;;14.26;100.00;100971.16;5181457;28;20407;-74
2022/10/28 06:23:33;;;;;;;13.93;3.00;;;;;;;14.16;100.00;100975.09;5186039;28;20495;-74
2022/10/28 06:26:04;;;;;;;14.07;2.87;;;;;;;14.21;100.00;100973.97;5182732;28;20061;-74
2022/10/28 06:28:34;;;;;;;9.93;2.63;;;;;;;14.08;100.00;100979.81;5195733;28;20334;-74
2022/10/28 06:31:08;;;;;;;16.13;2.90;;;;;;;13.99;100.00;100977.56;5187520;28;20369;-74
2022/10/28 06:33:38;;;;;;;10.00;2.90;;;;;;;13.97;100.00;100984.66;5187680;28;20277;-74
2022/10/28 06:36:08;;;;;;;9.30;3.30;;;;;;;14.11;100.00;100977.88;5185984;28;20037;-74
2022/10/28 06:38:39;;;;;;;6.40;2.75;;;;;;;14.16;100.00;100978.59;5183126;28;20037;-74
2022/10/28 06:41:09;;;;;;;9.90;3.45;;;;;;;14.13;100.00;100981.31;5181766;28;20042;-74
2022/10/28 06:43:39;;;;;;;10.23;3.10;;;;;;;14.22;100.00;100980.09;5180470;28;20680;-73
2022/10/28 06:46:09;;;;;;;11.32;3.05;;;;;;;14.25;100.00;100987.84;5171927;28;20732;-74
2022/10/28 06:48:40;;;;;;;9.70;2.85;;;;;;;14.33;100.00;100983.97;5184678;28;20013;-74
2022/10/28 06:51:10;;;;;;;9.00;2.75;;;;;;;14.33;100.00;100988.34;5178089;28;20069;-72
2022/10/28 06:53:40;;;;;;;7.43;2.90;;;;;;;14.36;100.00;100996.97;5184903;28;20113;-74
2022/10/28 06:56:11;;;;;;;10.13;3.10;;;;;;;14.35;100.00;100991.75;5179844;28;20112;-74
2022/10/28 06:58:41;;;;;;;10.97;2.83;;;;;;;14.36;100.00;100990.84;5183209;28;20033;-74
2022/10/28 07:01:11;;;;;;;11.10;3.30;;;;;;;14.51;100.00;100987.53;5168428;28;20276;-74
2022/10/28 07:03:42;;;;;;;17.87;3.00;;;;;;;14.68;100.00;100985.88;5185080;28;20025;-74
2022/10/28 07:06:12;;;;;;;13.07;2.53;;;;;;;14.73;100.00;100993.56;5181769;28;20291;-73
2022/10/28 07:08:43;;;;;;;9.13;2.78;;;;;;;14.87;100.00;100984.94;5182088;28;20432;-73
2022/10/28 07:11:13;;;;;;;12.10;3.65;;;;;;;14.82;100.00;100996.63;5182260;28;20030;-73
2022/10/28 07:13:43;;;;;;;8.07;2.53;;;;;;;14.86;100.00;101001.63;5179298;28;20048;-74
2022/10/28 07:16:14;;;;;;;10.32;3.03;;;;;;;14.99;100.00;100997.53;5186174;28;21109;-73
2022/10/28 07:18:44;;;;;;;9.60;2.60;;;;;;;15.05;100.00;100996.38;5179666;28;20030;-73
2022/10/28 07:21:17;;;;;;;10.02;2.67;;;;;;;15.26;100.00;100998.00;5181140;28;20160;-74
2022/10/28 07:23:47;;;;;;;10.48;2.45;;;;;;;15.34;100.00;100994.09;5182191;28;20029;-74
2022/10/28 07:26:17;;;;;;;9.40;2.70;;;;;;;15.51;100.00;100994.13;5179768;28;20036;-73
2022/10/28 07:28:48;;;;;;;7.25;2.38;;;;;;;15.56;100.00;100994.75;5180407;28;20279;-73
2022/10/28 07:31:18;;;;;;;10.02;2.65;;;;;;;15.61;100.00;100998.03;5184115;28;20026;-74
2022/10/28 07:33:53;;;;;;;9.88;2.83;;;;;;;15.88;100.00;101004.56;5218710;22;20419;-77
2022/10/28 07:36:23;;;;;;;7.80;2.50;;;;;;;16.12;100.00;101007.72;5216321;28;20552;-76
2022/10/28 07:38:54;;;;;;;11.40;2.65;;;;;;;16.35;100.00;101000.38;5217539;28;20028;-77
2022/10/28 07:41:24;;;;;;;10.18;2.97;;;;;;;16.52;100.00;101002.97;5219059;28;20021;-76
2022/10/28 07:43:54;;;;;;;6.68;2.33;;;;;;;16.85;100.00;100993.25;5219432;28;20147;-76
2022/10/28 07:46:25;;;;;;;11.75;2.83;;;;;;;17.43;100.00;100997.00;5219358;28;20375;-76
2022/10/28 07:48:55;;;;;;;8.38;2.40;;;;;;;17.64;100.00;101003.75;5194635;28;20030;-77
2022/10/28 07:51:26;;;;;;;9.73;2.47;;;;;;;17.64;100.00;101003.75;5219569;28;20033;-76
2022/10/28 07:53:57;;;;;;;11.10;2.33;;;;;;;18.76;100.00;100997.72;5219137;28;20771;-77
2022/10/28 07:56:27;;;;;;;7.88;2.50;;;;;;;19.84;98.04;100995.97;5219028;28;20055;-77
2022/10/28 07:58:59;;;;;;;9.87;2.30;;;;;;;20.90;93.01;100985.81;5219044;28;20029;-77
2022/10/28 08:01:29;;;;;;;5.25;2.25;;;;;;;20.90;94.89;100992.97;5220058;28;20968;-77
2022/10/28 08:03:59;;;;;;;6.67;2.00;;;;;;;21.70;89.97;100987.88;5217927;28;20110;-77
2022/10/28 08:06:30;;;;;;;7.93;1.90;;;;;;;21.93;87.67;100990.53;5219073;28;21008;-78
2022/10/28 08:09:00;;;;;;;8.00;2.15;;;;;;;21.60;87.42;100993.03;5217867;28;20784;-77
2022/10/28 08:11:31;;;;;;;7.93;2.03;;;;;;;21.47;85.49;100996.72;5218895;28;20033;-77
2022/10/28 08:14:01;;;;;;;6.50;2.33;;;;;;;21.67;86.64;100998.78;5196327;28;20079;-77
2022/10/28 08:16:32;;;;;;;9.35;2.00;;;;;;;21.93;84.03;100995.03;5219320;28;20298;-77
2022/10/28 08:19:02;;;;;;;6.85;2.17;;;;;;;22.34;85.87;100995.34;5219846;28;20028;-77
2022/10/28 08:21:32;;;;;;;7.63;1.58;;;;;;;22.61;81.21;100990.59;5219583;28;20079;-78
2022/10/28 08:24:03;;;;;;;7.65;1.85;;;;;;;23.08;79.92;100984.03;5200622;28;20491;-77
2022/10/28 08:26:33;;;;;;;6.63;2.15;;;;;;;22.83;79.99;100986.94;5219068;28;20075;-77
2022/10/28 08:29:03;;;;;;;8.98;2.00;;;;;;;23.14;77.50;100980.91;5201212;28;20029;-78
2022/10/28 08:31:33;;;;;;;7.33;2.00;;;;;;;22.99;78.21;100987.44;5219411;28;20025;-77
2022/10/28 08:34:05;;;;;;;11.30;2.13;;;;;;;23.24;79.44;100989.84;5218609;28;20287;-78
2022/10/28 08:36:36;;;;;;;9.48;1.95;;;;;;;22.99;79.82;100984.75;5218332;28;20028;-78
2022/10/28 08:39:06;;;;;;;9.03;1.97;;;;;;;23.43;76.46;100991.84;5219024;28;20029;-77
2022/10/28 08:41:43;;;;;;;8.55;2.00;;;;;;;22.38;80.09;100991.47;5218040;28;20318;-77
2022/10/28 08:44:54;;;;;;;7.25;1.90;;;;;;;21.82;82.87;100987.84;5219083;28;20051;-77
2022/10/28 08:48:01;;;;;;;11.55;2.10;;;;;;;21.40;85.20;100990.16;5177764;28;20083;-77
2022/10/28 08:50:39;;;;;;;8.60;2.10;;;;;;;21.44;85.15;100986.31;5218621;28;20028;-77
2022/10/28 08:53:20;;;;;;;10.50;2.28;;;;;;;21.01;89.20;100985.03;5218285;28;20041;-75
2022/10/28 08:55:53;;;;;;;11.18;2.10;;;;;;;21.08;87.90;100994.28;5217360;28;20029;-77
2022/10/28 08:58:37;;;;;;;10.18;2.33;;;;;;;20.99;89.99;100994.94;5219391;28;20144;-78
2022/10/28 09:01:15;;;;;;;5.53;1.95;;;;;;;20.91;89.37;100997.31;5222533;28;20255;-77
2022/10/28 09:03:50;;;;;;;6.72;2.00;;;;;;;21.09;88.60;101002.16;5222056;28;20020;-77
2022/10/28 09:06:20;;;;;;;8.02;2.30;;;;;;;20.95;90.29;100996.13;5221556;28;20028;-77
2022/10/28 09:08:52;;;;;;;12.63;2.50;;;;;;;20.95;90.06;100993.47;5222287;28;20029;-77
2022/10/28 09:11:45;;;;;;;12.00;2.00;;;;;;;21.12;89.08;100990.44;5203803;28;20119;-77
2022/10/28 09:14:53;;;;;;;9.88;2.20;;;;;;;21.27;88.60;100992.00;5218142;28;20480;-78
2022/10/28 09:17:43;;;;;;;12.27;2.63;;;;;;;21.45;85.89;100990.66;5221379;28;20043;-77
2022/10/28 09:20:28;;;;;;;12.63;2.38;;;;;;;21.65;84.82;100984.72;5221873;28;20053;-77
2022/10/28 09:23:13;;;;;;;9.55;2.20;;;;;;;21.75;82.53;100986.59;5222513;28;20398;-77
2022/10/28 09:26:08;;;;;;;9.80;1.92;;;;;;;21.75;82.84;100991.09;5222131;28;20497;-77
2022/10/28 09:28:58;;;;;;;7.97;2.03;;;;;;;21.87;81.40;100995.47;5221918;28;20025;-77
2022/10/28 09:31:34;;;;;;;11.05;2.38;;;;;;;22.04;80.93;100997.69;5221312;28;20021;-77
2022/10/28 09:34:38;;;;;;;12.98;2.70;;;;;;;22.18;80.27;100998.38;5222308;28;20482;-77
2022/10/28 09:37:16;;;;;;;13.32;2.53;;;;;;;22.37;78.58;100998.66;5221913;28;20021;-77
2022/10/28 09:39:52;;;;;;;10.63;2.42;;;;;;;22.60;77.45;100999.56;5222141;28;20035;-77
2022/10/28 09:42:31;;;;;;;10.88;2.80;;;;;;;22.60;75.40;100997.72;5220253;28;20398;-78
2022/10/28 09:45:05;;;;;;;10.55;2.30;;;;;;;22.71;76.65;101001.25;5220940;28;20056;-77
2022/10/28 09:47:40;;;;;;;12.50;2.30;;;;;;;22.51;76.03;101000.25;5222009;28;20107;-77
2022/10/28 09:50:22;;;;;;;12.45;2.85;;;;;;;22.32;76.21;101005.28;5222338;28;20025;-76
2022/10/28 09:53:13;;;;;;;14.02;2.47;;;;;;;21.95;77.66;101009.06;5221000;28;20040;-76
2022/10/28 09:55:44;;;;;;;13.18;2.55;;;;;;;21.83;77.17;101009.97;5221132;28;20061;-77
2022/10/28 09:58:16;;;;;;;12.68;2.70;;;;;;;21.61;78.78;101010.69;5221106;28;20319;-77
2022/10/28 10:00:46;;;;;;;10.45;2.63;;;;;;;21.47;79.47;101000.22;5221728;28;20025;-77
2022/10/28 10:03:17;;;;;;;17.48;2.85;;;;;;;21.44;80.30;100991.63;5221156;28;20579;-77
2022/10/28 10:05:51;;;;;;;14.52;2.65;;;;;;;21.38;80.08;100997.41;5221372;28;20060;-77
2022/10/28 10:08:22;;;;;;;18.77;2.78;;;;;;;21.44;78.38;100989.78;5220296;28;20017;-77
2022/10/28 10:11:00;;;;;;;10.70;2.47;;;;;;;21.41;79.56;100994.50;5222029;28;20063;-76
2022/10/28 10:13:38;;;;;;;8.88;2.33;;;;;;;21.36;79.60;100999.28;5221133;28;20445;-77
2022/10/28 10:16:25;;;;;;;13.40;2.10;;;;;;;21.46;79.76;101000.34;5221688;28;20264;-76
2022/10/28 10:18:59;;;;;;;9.30;2.40;;;;;;;21.36;80.85;101005.47;5219571;28;20029;-77
2022/10/28 10:21:47;;;;;;;12.32;2.90;;;;;;;21.35;80.38;100994.94;5221027;28;20158;-77
2022/10/28 10:24:31;;;;;;;16.05;3.00;;;;;;;21.13;80.97;101002.78;5220388;28;20104;-77
2022/10/28 10:27:13;;;;;;;12.52;2.45;;;;;;;21.06;82.18;101001.53;5201255;28;20518;-77
2022/10/28 10:29:50;;;;;;;9.57;2.20;;;;;;;21.04;80.91;100992.84;5219721;28;20155;-77
2022/10/28 10:32:25;;;;;;;13.48;2.75;;;;;;;21.27;80.20;100989.34;5203284;28;20021;-77
2022/10/28 10:34:57;;;;;;;13.23;2.55;;;;;;;21.39;81.49;100991.13;5220306;28;20518;-77
2022/10/28 10:37:32;;;;;;;10.35;2.10;;;;;;;21.43;82.99;100989.94;5220800;28;20043;-77
2022/10/28 10:40:18;;;;;;;9.55;2.22;;;;;;;21.69;81.55;100987.06;5221427;28;20032;-77
2022/10/28 10:42:48;;;;;;;9.20;2.28;;;;;;;21.71;79.45;100984.31;5220640;28;20071;-77
2022/10/28 10:45:26;;;;;;;11.52;2.42;;;;;;;21.86;80.38;100969.81;5220043;28;20075;-77
2022/10/28 10:48:13;;;;;;;9.73;2.20;;;;;;;21.89;79.73;100969.59;5220312;28;20045;-77
2022/10/28 10:50:48;;;;;;;10.23;2.50;;;;;;;21.90;78.82;100973.97;5221216;28;20498;-76
2022/10/28 10:53:20;;;;;;;11.05;2.40;;;;;;;21.93;78.68;100973.72;5219526;28;20029;-77
2022/10/28 10:55:59;;;;;;;12.30;2.20;;;;;;;21.99;78.61;100973.25;5216760;28;20513;-77
2022/10/28 10:58:33;;;;;;;9.57;2.38;;;;;;;21.97;77.91;100968.06;5220361;28;20029;-76
2022/10/28 11:01:06;;;;;;;11.75;2.25;;;;;;;21.97;78.39;100965.41;5220443;28;20485;-77
2022/10/28 11:03:46;;;;;;;11.93;2.05;;;;;;;22.12;81.74;100960.69;5220074;28;20082;-77
2022/10/28 11:06:29;;;;;;;11.07;2.20;;;;;;;22.19;76.65;100959.25;5220271;28;20275;-77
2022/10/28 11:09:16;;;;;;;11.07;2.10;;;;;;;22.31;77.88;100958.31;5219818;28;20364;-77
2022/10/28 11:11:47;;;;;;;6.93;1.50;;;;;;;22.36;76.78;100961.44;5220558;28;20323;-76
2022/10/28 11:14:20;;;;;;;11.13;2.20;;;;;;;22.51;75.50;100960.28;5220278;28;20025;-77
2022/10/28 11:16:59;;;;;;;16.27;2.28;;;;;;;22.43;77.08;100960.88;5220583;28;20017;-76
2022/10/28 11:19:32;;;;;;;13.73;2.10;;;;;;;22.51;76.05;100953.16;5220167;28;20821;-77
2022/10/28 11:22:22;;;;;;;10.50;2.10;;;;;;;22.48;77.28;100950.75;5219014;28;20047;-76
2022/10/28 11:24:55;;;;;;;12.50;2.30;;;;;;;22.38;77.99;100948.84;5216829;28;20036;-76
2022/10/28 11:27:37;;;;;;;11.75;2.42;;;;;;;22.44;76.27;100951.09;5218930;28;20032;-77
2022/10/28 11:30:17;;;;;;;11.00;2.33;;;;;;;22.35;77.45;100943.78;5218745;28;20029;-77
2022/10/28 11:33:08;;;;;;;10.60;2.03;;;;;;;22.42;76.03;100950.38;5219762;28;20041;-76
2022/10/28 11:35:46;;;;;;;11.25;2.20;;;;;;;22.46;75.89;100941.16;5217806;28;20029;-77
2022/10/28 11:38:43;;;;;;;9.60;2.17;;;;;;;22.50;74.63;100938.16;5217292;28;20247;-77
2022/10/28 11:41:46;;;;;;;14.00;2.50;;;;;;;22.42;76.31;100940.53;5217518;28;20021;-77
2022/10/28 11:44:35;;;;;;;15.13;3.20;;;;;;;22.45;76.54;100931.47;5199546;28;20033;-77
2022/10/28 11:47:14;;;;;;;9.35;1.98;;;;;;;22.44;76.58;100938.59;5193433;28;20403;-77
2022/10/28 11:50:00;;;;;;;14.57;2.22;;;;;;;22.44;77.78;100929.78;5219493;28;20033;-76
2022/10/28 11:52:51;;;;;;;11.07;2.10;;;;;;;22.48;74.33;100936.56;5218201;28;20033;-76